createdAt,value
2022-11-20T00:01:30.453Z,4.02
2022-11-20T00:03:59.168Z,4.07
2022-11-20T00:06:27.290Z,4.10
2022-11-20T00:08:58.303Z,4.14
2022-11-20T00:11:27.324Z,4.11
2022-11-20T00:13:58.253Z,4.11
2022-11-20T00:16:27.073Z,4.13
2022-11-20T00:18:54.916Z,4.12
2022-11-20T00:21:25.217Z,4.18
2022-11-20T00:23:55.314Z,4.17
2022-11-20T00:26:24.177Z,4.21
2022-11-20T00:28:53.187Z,4.23
2022-11-20T00:31:21.044Z,4.25
2022-11-20T00:33:48.616Z,4.29
2022-11-20T00:36:24.280Z,4.26
2022-11-20T00:38:56.057Z,4.21
2022-11-20T00:41:23.806Z,4.21
2022-11-20T00:43:52.577Z,4.24
2022-11-20T00:46:21.975Z,4.17
2022-11-20T00:48:49.166Z,4.13
2022-11-20T00:51:18.917Z,4.11
2022-11-20T00:53:46.845Z,4.09
2022-11-20T00:56:16.395Z,4.08
2022-11-20T00:58:45.676Z,4.08
2022-11-20T01:01:21.103Z,4.10
2022-11-20T01:03:50.960Z,4.06
2022-11-20T01:06:24.570Z,4.02
2022-11-20T01:08:53.870Z,4.09
2022-11-20T01:11:29.290Z,4.08
2022-11-20T01:13:58.004Z,4.06
2022-11-20T01:16:31.158Z,4.08
2022-11-20T01:19:00.911Z,4.10
2022-11-20T01:21:33.990Z,4.06
2022-11-20T01:24:01.553Z,4.02
2022-11-20T01:26:31.571Z,4.01
2022-11-20T01:29:00.150Z,4.05
2022-11-20T01:31:29.672Z,4.07
2022-11-20T01:33:59.431Z,4.08
2022-11-20T01:36:29.415Z,4.13
2022-11-20T01:38:58.573Z,4.17
2022-11-20T01:41:45.610Z,4.17
2022-11-20T01:44:16.220Z,4.23
2022-11-20T01:47:03.050Z,4.25
2022-11-20T01:49:42.069Z,4.28
2022-11-20T01:52:21.171Z,4.28
2022-11-20T01:54:55.353Z,4.25
2022-11-20T01:57:26.530Z,4.29
2022-11-20T02:00:00.930Z,4.32
2022-11-20T02:02:28.979Z,4.32
2022-11-20T02:05:02.014Z,4.33
2022-11-20T02:07:29.144Z,4.32
2022-11-20T02:09:58.908Z,4.34
2022-11-20T02:12:44.650Z,4.35
2022-11-20T02:15:11.851Z,4.34
2022-11-20T02:17:39.430Z,4.28
2022-11-20T02:20:07.671Z,4.29
2022-11-20T02:22:48.991Z,4.27
2022-11-20T02:25:16.503Z,4.27
2022-11-20T02:27:43.512Z,4.27
2022-11-20T02:30:12.191Z,4.25
2022-11-20T02:32:40.152Z,4.20
2022-11-20T02:35:27.011Z,4.20
2022-11-20T02:38:00.471Z,4.20
2022-11-20T02:40:27.615Z,4.24
2022-11-20T02:42:58.233Z,4.25
2022-11-20T02:45:26.300Z,4.26
2022-11-20T02:47:53.613Z,4.24
2022-11-20T02:50:21.091Z,4.25
2022-11-20T02:52:48.131Z,4.27
2022-11-20T02:55:15.131Z,4.25
2022-11-20T02:57:42.219Z,4.26
2022-11-20T03:00:10.331Z,4.23
2022-11-20T03:02:37.371Z,4.10
2022-11-20T03:05:04.610Z,4.19
2022-11-20T03:07:31.799Z,4.17
2022-11-20T03:09:58.811Z,4.20
2022-11-20T03:12:25.838Z,4.16
2022-11-20T03:14:53.488Z,4.17
2022-11-20T03:17:20.923Z,4.14
2022-11-20T03:19:48.092Z,4.11
2022-11-20T03:22:15.200Z,4.12
2022-11-20T03:24:42.272Z,4.16
2022-11-20T03:27:09.272Z,4.15
2022-11-20T03:29:36.912Z,4.16
2022-11-20T03:32:04.052Z,4.18
2022-11-20T03:34:31.071Z,4.16
2022-11-20T03:36:58.290Z,4.16
2022-11-20T03:39:25.252Z,4.13
2022-11-20T03:41:52.332Z,4.19
2022-11-20T03:44:22.611Z,4.17
2022-11-20T03:46:49.697Z,4.17
2022-11-20T03:49:16.894Z,4.13
2022-11-20T03:51:43.871Z,4.14
2022-11-20T03:54:11.060Z,4.17
2022-11-20T03:56:39.335Z,4.20
2022-11-20T03:59:06.296Z,4.16
2022-11-20T04:01:38.670Z,4.21
2022-11-20T04:04:06.252Z,4.21
2022-11-20T04:06:38.745Z,4.23
2022-11-20T04:09:06.643Z,4.25
2022-11-20T04:11:36.550Z,4.27
2022-11-20T04:14:07.094Z,4.28
2022-11-20T04:16:36.357Z,4.28
2022-11-20T04:19:06.711Z,4.31
2022-11-20T04:21:33.952Z,4.32
2022-11-20T04:24:00.992Z,4.35
2022-11-20T04:26:29.673Z,4.35
2022-11-20T04:28:57.672Z,4.39
2022-11-20T04:31:27.792Z,4.39
2022-11-20T04:33:55.003Z,4.39
2022-11-20T04:36:27.311Z,4.38
2022-11-20T04:38:57.321Z,4.42
2022-11-20T04:41:30.233Z,4.42
2022-11-20T04:44:04.542Z,4.45
2022-11-20T04:46:37.651Z,4.47
2022-11-20T04:49:05.234Z,4.48
2022-11-20T04:51:32.611Z,4.49
2022-11-20T04:53:59.851Z,4.50
2022-11-20T04:56:26.933Z,4.51
2022-11-20T04:58:54.219Z,4.51
2022-11-20T05:01:23.993Z,4.49
2022-11-20T05:03:51.475Z,4.48
2022-11-20T05:06:20.831Z,4.42
2022-11-20T05:08:48.072Z,4.42
2022-11-20T05:11:17.680Z,4.37
2022-11-20T05:13:45.028Z,4.34
2022-11-20T05:16:18.518Z,4.24
2022-11-20T05:18:46.989Z,4.22
2022-11-20T05:21:14.534Z,4.24
2022-11-20T05:23:42.995Z,4.25
2022-11-20T05:26:15.311Z,4.24
2022-11-20T05:28:42.514Z,4.24
2022-11-20T05:31:14.991Z,4.18
2022-11-20T05:33:43.374Z,4.19
2022-11-20T05:36:11.712Z,4.23
2022-11-20T05:38:39.401Z,4.24
2022-11-20T05:41:24.412Z,4.27
2022-11-20T05:43:52.301Z,4.30
2022-11-20T05:46:27.843Z,4.34
2022-11-20T05:48:56.979Z,4.36
2022-11-20T05:51:24.851Z,4.37
2022-11-20T05:53:51.830Z,4.42
2022-11-20T05:56:20.715Z,4.45
2022-11-20T05:58:48.490Z,4.46
2022-11-20T06:01:21.880Z,4.43
2022-11-20T06:03:50.612Z,4.49
2022-11-20T06:06:18.971Z,4.52
2022-11-20T06:08:46.291Z,4.54
2022-11-20T06:11:15.196Z,4.55
2022-11-20T06:13:43.128Z,4.57
2022-11-20T06:16:11.811Z,4.57
2022-11-20T06:18:39.406Z,4.53
2022-11-20T06:21:12.078Z,4.54
2022-11-20T06:23:40.571Z,4.58
2022-11-20T06:26:10.591Z,4.54
2022-11-20T06:28:37.580Z,4.52
2022-11-20T06:31:05.671Z,4.55
2022-11-20T06:33:32.670Z,4.54
2022-11-20T06:36:05.699Z,4.55
2022-11-20T06:38:36.159Z,4.54
2022-11-20T06:41:05.855Z,4.52
2022-11-20T06:43:32.991Z,4.51
2022-11-20T06:46:00.501Z,4.52
2022-11-20T06:48:28.952Z,4.49
2022-11-20T06:50:56.190Z,4.50
2022-11-20T06:53:24.251Z,4.48
2022-11-20T06:55:52.751Z,4.49
2022-11-20T06:58:20.035Z,4.49
2022-11-20T07:00:47.284Z,4.50
2022-11-20T07:03:15.574Z,4.49
2022-11-20T07:05:42.631Z,4.53
2022-11-20T07:08:09.718Z,4.51
2022-11-20T07:10:37.336Z,4.60
2022-11-20T07:13:04.951Z,4.60
2022-11-20T07:15:32.112Z,4.64
2022-11-20T07:18:02.812Z,4.65
2022-11-20T07:20:30.034Z,4.68
2022-11-20T07:23:00.691Z,4.72
2022-11-20T07:25:29.351Z,4.76
2022-11-20T07:27:59.731Z,4.79
2022-11-20T07:30:31.693Z,4.83
2022-11-20T07:32:59.231Z,4.89
2022-11-20T07:35:26.471Z,4.94
2022-11-20T07:37:53.452Z,4.97
2022-11-20T07:40:21.199Z,5.04
2022-11-20T07:42:53.153Z,5.08
2022-11-20T07:45:21.635Z,5.10
2022-11-20T07:47:49.351Z,5.16
2022-11-20T07:50:17.412Z,5.22
2022-11-20T07:52:44.582Z,5.29
2022-11-20T07:55:12.014Z,5.35
2022-11-20T07:57:38.985Z,5.35
2022-11-20T08:00:08.470Z,5.44
2022-11-20T08:02:42.723Z,5.49
2022-11-20T08:05:10.347Z,5.57
2022-11-20T08:07:41.437Z,5.62
2022-11-20T08:10:09.963Z,5.67
2022-11-20T08:12:56.392Z,5.70
2022-11-20T08:15:23.351Z,5.75
2022-11-20T08:21:01.433Z,5.92
2022-11-20T08:23:34.511Z,5.86
2022-11-20T08:26:02.251Z,5.95
2022-11-20T08:28:29.466Z,5.97
2022-11-20T08:31:03.772Z,5.99
2022-11-20T08:33:31.177Z,5.97
2022-11-20T08:36:02.717Z,6.06
2022-11-20T08:38:31.171Z,6.10
2022-11-20T08:41:21.573Z,6.15
2022-11-20T08:43:49.052Z,6.23
2022-11-20T08:46:16.278Z,6.31
2022-11-20T08:48:43.751Z,6.37
2022-11-20T08:51:12.076Z,6.42
2022-11-20T08:53:40.091Z,6.48
2022-11-20T08:56:07.472Z,6.50
2022-11-20T08:58:54.923Z,6.55
2022-11-20T09:01:23.049Z,6.62
2022-11-20T09:03:50.894Z,6.65
2022-11-20T09:06:19.412Z,6.73
2022-11-20T09:08:46.531Z,6.73
2022-11-20T09:11:13.472Z,6.78
2022-11-20T09:13:40.712Z,6.83
2022-11-20T09:16:09.751Z,6.90
2022-11-20T09:18:40.011Z,6.91
2022-11-20T09:21:12.278Z,6.98
2022-11-20T09:23:40.472Z,7.02
2022-11-20T09:26:13.045Z,7.10
2022-11-20T09:28:40.352Z,7.16
2022-11-20T09:31:09.715Z,7.22
2022-11-20T09:33:37.372Z,7.27
2022-11-20T09:36:05.066Z,7.40
2022-11-20T09:38:33.179Z,7.41
2022-11-20T09:41:06.231Z,7.42
2022-11-20T09:44:15.390Z,7.42
2022-11-20T09:46:55.011Z,7.49
2022-11-20T09:49:46.290Z,7.79
2022-11-20T09:52:40.761Z,7.86
2022-11-20T09:55:12.551Z,8.17
2022-11-20T09:57:47.354Z,8.30
2022-11-20T10:00:16.568Z,8.55
2022-11-20T10:03:06.732Z,8.73
2022-11-20T10:05:48.614Z,8.83
2022-11-20T10:08:33.320Z,8.94
2022-11-20T10:11:16.912Z,9.15
2022-11-20T10:14:05.831Z,9.15
2022-11-20T10:16:48.052Z,9.45
2022-11-20T10:19:39.831Z,9.80
2022-11-20T10:22:28.631Z,10.08
2022-11-20T10:25:14.312Z,10.16
2022-11-20T10:28:16.459Z,10.32
2022-11-20T10:30:47.047Z,10.70
2022-11-20T10:33:22.522Z,10.80
2022-11-20T10:36:17.599Z,11.07
2022-11-20T10:38:50.832Z,11.20
2022-11-20T10:41:28.163Z,11.38
2022-11-20T10:44:06.092Z,11.60
2022-11-20T10:46:44.331Z,11.80
2022-11-20T10:49:15.691Z,11.92
2022-11-20T10:52:03.358Z,12.16
2022-11-20T10:54:39.611Z,12.31
2022-11-20T10:57:22.780Z,12.33
2022-11-20T11:00:10.456Z,12.37
2022-11-20T11:02:48.672Z,12.55
2022-11-20T11:05:21.491Z,12.71
2022-11-20T11:07:52.292Z,12.87
2022-11-20T11:10:24.135Z,12.78
2022-11-20T11:12:51.111Z,12.74
2022-11-20T11:15:39.049Z,12.80
2022-11-20T11:18:06.372Z,12.55
2022-11-20T11:20:33.811Z,12.48
2022-11-20T11:23:01.700Z,12.19
2022-11-20T11:25:30.359Z,12.36
2022-11-20T11:28:03.497Z,12.08
2022-11-20T11:30:41.451Z,11.91
2022-11-20T11:33:13.057Z,12.00
2022-11-20T11:35:49.955Z,11.93
2022-11-20T11:38:28.552Z,12.05
2022-11-20T11:40:57.711Z,12.31
2022-11-20T11:43:46.712Z,12.35
2022-11-20T11:46:34.873Z,12.40
2022-11-20T11:49:22.650Z,12.63
2022-11-20T11:51:52.811Z,12.49
2022-11-20T11:54:49.771Z,12.59
2022-11-20T11:57:39.120Z,12.37
2022-11-20T12:00:12.891Z,12.63
2022-11-20T12:13:28.512Z,12.43
2022-11-20T12:15:56.093Z,13.00
2022-11-20T12:18:24.056Z,13.68
2022-11-20T12:21:07.651Z,14.72
2022-11-20T12:24:31.491Z,15.72
2022-11-20T12:27:25.772Z,16.57
2022-11-20T12:30:21.653Z,17.34
2022-11-20T12:33:38.659Z,18.02
2022-11-20T12:36:31.700Z,17.96
2022-11-20T12:39:42.263Z,18.69
2022-11-20T12:43:15.319Z,19.36
2022-11-20T12:46:04.532Z,18.28
2022-11-20T12:48:52.842Z,17.80
2022-11-20T12:51:46.631Z,17.15
2022-11-20T12:54:47.512Z,16.57
2022-11-20T12:57:20.151Z,16.09
2022-11-20T13:00:08.949Z,15.76
2022-11-20T13:02:58.351Z,15.27
2022-11-20T13:05:51.411Z,14.91
2022-11-20T13:08:28.912Z,14.36
2022-11-20T13:11:11.634Z,14.10
2022-11-20T13:14:16.773Z,13.81
2022-11-20T13:16:52.738Z,13.48
2022-11-20T13:19:20.192Z,13.30
2022-11-20T13:21:52.998Z,13.04
2022-11-20T13:24:20.174Z,12.89
2022-11-20T13:26:48.391Z,12.71
2022-11-20T13:29:20.032Z,12.51
2022-11-20T13:31:50.254Z,12.33
2022-11-20T13:34:28.395Z,12.26
2022-11-20T13:36:56.831Z,12.15
2022-11-20T13:39:32.668Z,12.11
2022-11-20T13:42:01.253Z,12.12
2022-11-20T13:44:36.753Z,12.05
2022-11-20T13:47:03.931Z,11.97
2022-11-20T13:49:35.492Z,11.95
2022-11-20T13:52:24.171Z,11.98
2022-11-20T13:54:53.093Z,11.93
2022-11-20T13:57:36.591Z,11.96
2022-11-20T14:00:21.592Z,11.84
2022-11-20T14:03:17.203Z,11.66
2022-11-20T14:06:01.271Z,11.52
2022-11-20T14:08:50.191Z,11.39
2022-11-20T14:11:22.700Z,11.20
2022-11-20T14:14:00.652Z,11.03
2022-11-20T14:16:31.292Z,11.03
2022-11-20T14:19:18.035Z,11.00
2022-11-20T14:21:45.070Z,10.98
2022-11-20T14:24:14.471Z,10.87
2022-11-20T14:26:45.814Z,10.79
2022-11-20T14:29:37.731Z,10.71
2022-11-20T14:32:05.591Z,10.74
2022-11-20T14:34:36.911Z,10.56
2022-11-20T14:37:09.515Z,10.52
2022-11-20T14:39:43.001Z,10.36
2022-11-20T14:42:23.491Z,10.26
2022-11-20T14:44:52.071Z,10.13
2022-11-20T14:47:23.051Z,10.06
2022-11-20T14:49:53.212Z,9.99
2022-11-20T14:52:25.641Z,9.92
2022-11-20T14:54:55.017Z,9.85
2022-11-20T14:57:27.893Z,9.80
2022-11-20T15:00:20.011Z,9.76
2022-11-20T15:02:52.680Z,9.68
2022-11-20T15:05:22.251Z,9.60
2022-11-20T15:07:52.712Z,9.53
2022-11-20T15:10:28.393Z,9.46
2022-11-20T15:13:01.225Z,9.32
2022-11-20T15:15:36.211Z,9.20
2022-11-20T15:18:05.631Z,9.11
2022-11-20T15:20:34.351Z,9.02
2022-11-20T15:23:01.472Z,8.96
2022-11-20T15:25:30.971Z,8.90
2022-11-20T15:27:58.372Z,8.83
2022-11-20T15:30:25.939Z,8.77
2022-11-20T15:32:52.930Z,8.69
2022-11-20T15:35:20.124Z,8.64
2022-11-20T15:37:47.319Z,8.55
2022-11-20T15:40:14.351Z,8.46
2022-11-20T15:43:01.395Z,8.36
2022-11-20T15:45:31.371Z,8.27
2022-11-20T15:47:58.631Z,8.20
2022-11-20T15:50:33.511Z,8.11
2022-11-20T15:53:01.847Z,8.05
2022-11-20T15:55:32.052Z,7.96
2022-11-20T15:57:59.345Z,7.87
2022-11-20T16:00:26.511Z,7.80
2022-11-20T16:02:53.811Z,7.76
2022-11-20T16:05:21.094Z,7.68
2022-11-20T16:07:48.253Z,7.52
2022-11-20T16:10:15.372Z,7.36
2022-11-20T16:13:00.872Z,7.22
2022-11-20T16:15:46.192Z,7.15
2022-11-20T16:18:17.992Z,7.08
2022-11-20T16:20:47.192Z,7.02
2022-11-20T16:23:14.573Z,6.95
2022-11-20T16:25:43.850Z,6.92
2022-11-20T16:28:17.435Z,6.90
2022-11-20T16:30:46.232Z,6.87
2022-11-20T16:33:15.694Z,6.81
2022-11-20T16:35:42.819Z,6.78
2022-11-20T16:38:10.550Z,6.76
2022-11-20T16:40:37.871Z,6.73
2022-11-20T16:43:15.631Z,6.71
2022-11-20T16:45:44.091Z,6.67
2022-11-20T16:48:16.238Z,6.64
2022-11-20T16:50:51.359Z,6.63
2022-11-20T16:53:23.195Z,6.59
2022-11-20T16:55:51.231Z,6.60
2022-11-20T16:58:18.291Z,6.53
2022-11-20T17:00:51.372Z,6.53
2022-11-20T17:03:19.273Z,6.44
2022-11-20T17:05:46.339Z,6.43
2022-11-20T17:08:13.331Z,6.44
2022-11-20T17:10:40.494Z,6.40
2022-11-20T17:13:07.472Z,6.37
2022-11-20T17:15:34.626Z,6.37
2022-11-20T17:18:03.753Z,6.36
2022-11-20T17:20:32.532Z,6.33
2022-11-20T17:22:59.930Z,6.32
2022-11-20T17:25:26.884Z,6.29
2022-11-20T17:27:54.851Z,6.28
2022-11-20T17:30:22.381Z,6.27
2022-11-20T17:32:50.632Z,6.26
2022-11-20T17:35:20.706Z,6.25
2022-11-20T17:37:47.711Z,6.23
2022-11-20T17:40:16.231Z,6.19
2022-11-20T17:42:45.252Z,6.17
2022-11-20T17:45:12.719Z,6.12
2022-11-20T17:47:40.511Z,6.08
2022-11-20T17:50:09.538Z,6.03
2022-11-20T17:52:39.251Z,5.95
2022-11-20T17:55:07.732Z,5.86
2022-11-20T17:57:55.572Z,5.79
2022-11-20T18:00:23.991Z,5.72
2022-11-20T18:02:51.031Z,5.68
2022-11-20T18:05:18.033Z,5.66
2022-11-20T18:07:45.714Z,5.62
2022-11-20T18:10:13.691Z,5.53
2022-11-20T18:12:51.307Z,5.54
2022-11-20T18:15:26.751Z,5.44
2022-11-20T18:17:53.711Z,5.45
2022-11-20T18:20:29.391Z,5.44
2022-11-20T18:22:58.367Z,5.46
2022-11-20T18:25:25.493Z,5.47
2022-11-20T18:27:52.713Z,5.43
2022-11-20T18:30:20.234Z,5.44
2022-11-20T18:32:47.291Z,5.36
2022-11-20T18:35:14.371Z,5.37
2022-11-20T18:37:41.551Z,5.29
2022-11-20T18:40:09.551Z,5.18
2022-11-20T18:43:00.126Z,5.17
2022-11-20T18:45:27.530Z,5.10
2022-11-20T18:47:54.453Z,5.00
2022-11-20T18:50:22.339Z,4.95
2022-11-20T18:52:49.299Z,4.88
2022-11-20T18:55:23.180Z,4.89
2022-11-20T18:57:50.599Z,4.83
2022-11-20T19:00:18.556Z,4.80
2022-11-20T19:02:47.043Z,4.83
2022-11-20T19:05:15.269Z,4.85
2022-11-20T19:07:42.688Z,4.83
2022-11-20T19:10:10.078Z,4.81
2022-11-20T19:12:37.221Z,4.78
2022-11-20T19:15:04.756Z,4.72
2022-11-20T19:17:33.884Z,4.63
2022-11-20T19:20:01.199Z,4.64
2022-11-20T19:22:28.120Z,4.63
2022-11-20T19:24:55.089Z,4.60
2022-11-20T19:27:22.069Z,4.57
2022-11-20T19:29:49.085Z,4.54
2022-11-20T19:32:16.519Z,4.50
2022-11-20T19:34:43.980Z,4.43
2022-11-20T19:37:11.597Z,4.40
2022-11-20T19:39:38.679Z,4.36
2022-11-20T19:42:05.757Z,4.34
2022-11-20T19:44:33.224Z,4.31
2022-11-20T19:47:00.960Z,4.31
2022-11-20T19:49:27.891Z,4.28
2022-11-20T19:51:55.081Z,4.24
2022-11-20T19:54:22.242Z,4.16
2022-11-20T19:56:49.811Z,4.11
2022-11-20T19:59:16.910Z,4.01
2022-11-20T20:01:44.032Z,3.96
2022-11-20T20:04:11.139Z,3.91
2022-11-20T20:06:39.240Z,3.89
2022-11-20T20:09:08.743Z,3.79
2022-11-20T20:11:36.919Z,3.78
2022-11-20T20:14:06.490Z,3.72
2022-11-20T20:16:35.401Z,3.70
2022-11-20T20:19:04.557Z,3.69
2022-11-20T20:21:33.500Z,3.68
2022-11-20T20:24:01.182Z,3.65
2022-11-20T20:26:31.079Z,3.64
2022-11-20T20:28:58.729Z,3.65
2022-11-20T20:31:27.915Z,3.64
2022-11-20T20:33:55.221Z,3.65
2022-11-20T20:36:23.529Z,3.61
2022-11-20T20:38:56.358Z,3.51
2022-11-20T20:41:25.736Z,3.54
2022-11-20T20:44:29.298Z,3.51
2022-11-20T20:46:56.720Z,3.63
2022-11-20T20:49:23.841Z,3.50
2022-11-20T20:51:50.898Z,3.47
2022-11-20T20:54:17.941Z,3.35
2022-11-20T20:56:44.989Z,3.25
2022-11-20T20:59:11.919Z,3.29
2022-11-20T21:01:38.917Z,3.35
2022-11-20T21:04:06.045Z,3.25
2022-11-20T21:06:33.089Z,3.21
2022-11-20T21:09:00.000Z,3.19
2022-11-20T21:11:27.021Z,3.17
2022-11-20T21:13:54.241Z,3.11
2022-11-20T21:16:25.239Z,3.05
2022-11-20T21:18:52.161Z,3.04
2022-11-20T21:21:38.161Z,3.08
2022-11-20T21:24:05.510Z,3.05
2022-11-20T21:26:32.399Z,2.94
2022-11-20T21:28:59.541Z,3.03
2022-11-20T21:31:27.147Z,3.03
2022-11-20T21:33:55.784Z,2.89
2022-11-20T21:36:29.043Z,2.87
2022-11-20T21:38:57.313Z,2.83
2022-11-20T21:41:24.459Z,2.81
2022-11-20T21:44:16.278Z,2.82
2022-11-20T21:46:42.600Z,2.78
2022-11-20T21:49:10.711Z,2.79
2022-11-20T21:51:37.889Z,2.83
2022-11-20T21:54:05.103Z,2.82
2022-11-20T21:56:32.199Z,2.82
2022-11-20T21:58:59.182Z,2.81
2022-11-20T22:01:30.746Z,2.81
2022-11-20T22:04:02.932Z,2.80
2022-11-20T22:06:32.793Z,2.80
2022-11-20T22:09:00.620Z,2.80
2022-11-20T22:11:27.886Z,2.83
2022-11-20T22:14:13.321Z,2.80
2022-11-20T22:16:40.360Z,2.80
2022-11-20T22:19:07.960Z,2.76
2022-11-20T22:21:35.573Z,2.80
2022-11-20T22:24:02.622Z,2.80
2022-11-20T22:26:34.951Z,2.80
2022-11-20T22:29:04.599Z,2.82
2022-11-20T22:31:32.150Z,2.79
2022-11-20T22:34:02.009Z,2.82
2022-11-20T22:36:31.019Z,2.74
2022-11-20T22:38:58.982Z,2.68
2022-11-20T22:41:29.419Z,2.61
2022-11-20T22:43:58.819Z,2.59
2022-11-20T22:46:27.469Z,2.56
2022-11-20T22:48:56.727Z,2.54
2022-11-20T22:51:29.419Z,2.53
2022-11-20T22:53:56.629Z,2.51
2022-11-20T22:56:24.158Z,2.56
2022-11-20T22:58:52.549Z,2.58
2022-11-20T23:01:20.539Z,2.56
2022-11-20T23:03:49.683Z,2.56
2022-11-20T23:06:18.794Z,2.54
2022-11-20T23:08:46.599Z,2.52
2022-11-20T23:11:19.091Z,2.45
2022-11-20T23:13:47.019Z,2.41
2022-11-20T23:16:20.099Z,2.41
2022-11-20T23:18:47.269Z,2.36
2022-11-20T23:21:17.199Z,2.34
2022-11-20T23:23:48.129Z,2.24
2022-11-20T23:26:16.860Z,2.21
2022-11-20T23:28:44.492Z,2.21
2022-11-20T23:31:13.211Z,2.16
2022-11-20T23:33:41.720Z,2.16
2022-11-20T23:36:09.303Z,2.17
2022-11-20T23:38:36.241Z,2.11
2022-11-20T23:41:04.348Z,2.16
2022-11-20T23:43:31.300Z,2.07
2022-11-20T23:46:00.280Z,2.10
2022-11-20T23:48:30.150Z,2.12
2022-11-20T23:50:57.505Z,2.14
2022-11-20T23:53:25.876Z,2.19
2022-11-20T23:55:56.539Z,2.21
2022-11-20T23:58:24.890Z,2.21
